createdAt,value
2023-04-21T00:01:59.569Z,8.04
2023-04-21T00:04:06.040Z,8.04
2023-04-21T00:06:10.925Z,8.05
2023-04-21T00:08:15.036Z,8.02
2023-04-21T00:10:19.401Z,8.02
2023-04-21T00:12:23.852Z,8.00
2023-04-21T00:14:27.882Z,7.99
2023-04-21T00:16:32.208Z,8.00
2023-04-21T00:18:36.649Z,8.01
2023-04-21T00:20:42.958Z,8.02
2023-04-21T00:22:47.324Z,8.02
2023-04-21T00:24:51.708Z,8.01
2023-04-21T00:26:56.370Z,8.02
2023-04-21T00:29:01.322Z,8.02
2023-04-21T00:31:07.344Z,8.02
2023-04-21T00:33:11.755Z,8.02
2023-04-21T00:35:16.217Z,8.01
2023-04-21T00:37:21.943Z,8.01
2023-04-21T00:39:26.083Z,7.99
2023-04-21T00:41:31.082Z,7.96
2023-04-21T00:43:35.445Z,7.96
2023-04-21T00:45:39.838Z,7.94
2023-04-21T00:47:44.229Z,7.94
2023-04-21T00:49:49.145Z,7.92
2023-04-21T00:51:55.246Z,7.91
2023-04-21T00:54:02.116Z,7.89
2023-04-21T00:56:06.753Z,7.87
2023-04-21T00:58:13.138Z,7.86
2023-04-21T01:00:18.402Z,7.85
2023-04-21T01:02:24.586Z,7.84
2023-04-21T01:04:35.766Z,7.84
2023-04-21T01:06:42.296Z,7.84
2023-04-21T01:08:48.250Z,7.83
2023-04-21T01:10:55.264Z,7.84
2023-04-21T01:12:59.627Z,7.82
2023-04-21T01:15:04.113Z,7.79
2023-04-21T01:17:08.982Z,7.78
2023-04-21T01:19:13.970Z,7.76
2023-04-21T01:21:20.546Z,7.74
2023-04-21T01:23:26.285Z,7.73
2023-04-21T01:25:31.076Z,7.70
2023-04-21T01:27:35.569Z,7.69
2023-04-21T01:29:39.952Z,7.68
2023-04-21T01:31:47.890Z,7.68
2023-04-21T01:33:51.840Z,7.67
2023-04-21T01:35:55.707Z,7.65
2023-04-21T01:37:59.732Z,7.60
2023-04-21T01:40:09.316Z,7.60
2023-04-21T01:42:13.733Z,7.57
2023-04-21T01:44:19.134Z,7.55
2023-04-21T01:46:23.443Z,7.54
2023-04-21T01:48:27.489Z,7.52
2023-04-21T01:50:31.459Z,7.50
2023-04-21T01:52:35.203Z,7.47
2023-04-21T01:54:39.010Z,7.45
2023-04-21T01:56:45.480Z,7.43
2023-04-21T01:58:49.333Z,7.41
2023-04-21T02:00:53.583Z,7.38
2023-04-21T02:02:58.939Z,7.37
2023-04-21T02:05:02.827Z,7.38
2023-04-21T02:07:07.401Z,7.36
2023-04-21T02:09:11.103Z,7.36
2023-04-21T02:11:14.970Z,7.36
2023-04-21T02:13:20.282Z,7.37
2023-04-21T02:15:23.701Z,7.36
2023-04-21T02:17:28.071Z,7.36
2023-04-21T02:19:33.974Z,7.33
2023-04-21T02:21:37.648Z,7.32
2023-04-21T02:23:41.549Z,7.32
2023-04-21T02:25:45.305Z,7.32
2023-04-21T02:27:49.294Z,7.35
2023-04-21T02:29:54.403Z,7.35
2023-04-21T02:32:05.177Z,7.36
2023-04-21T02:34:18.071Z,7.39
2023-04-21T02:36:21.934Z,7.40
2023-04-21T02:38:26.016Z,7.40
2023-04-21T02:40:29.885Z,7.41
2023-04-21T02:42:34.940Z,7.39
2023-04-21T02:44:39.619Z,7.40
2023-04-21T02:46:45.484Z,7.36
2023-04-21T02:48:49.311Z,7.35
2023-04-21T02:50:54.220Z,7.32
2023-04-21T02:52:58.004Z,7.32
2023-04-21T02:55:01.853Z,7.31
2023-04-21T02:57:05.568Z,7.31
2023-04-21T02:59:11.555Z,7.33
2023-04-21T03:01:16.968Z,7.33
2023-04-21T03:03:22.517Z,7.36
2023-04-21T03:05:26.539Z,7.37
2023-04-21T03:07:30.196Z,7.38
2023-04-21T03:09:34.039Z,7.39
2023-04-21T03:11:37.913Z,7.41
2023-04-21T03:13:41.629Z,7.44
2023-04-21T03:15:46.581Z,7.41
2023-04-21T03:17:53.275Z,7.43
2023-04-21T03:20:01.462Z,7.43
2023-04-21T03:22:05.298Z,7.40
2023-04-21T03:24:09.558Z,7.40
2023-04-21T03:26:13.485Z,7.38
2023-04-21T03:28:17.792Z,7.39
2023-04-21T03:30:22.603Z,7.40
2023-04-21T03:32:26.989Z,7.41
2023-04-21T03:34:31.251Z,7.41
2023-04-21T03:36:38.896Z,7.42
2023-04-21T03:38:44.134Z,7.44
2023-04-21T03:40:47.902Z,7.44
2023-04-21T03:42:51.556Z,7.43
2023-04-21T03:44:56.126Z,7.42
2023-04-21T03:47:00.164Z,7.43
2023-04-21T03:49:03.996Z,7.43
2023-04-21T03:51:07.696Z,7.44
2023-04-21T03:53:12.809Z,7.48
2023-04-21T03:55:16.261Z,7.47
2023-04-21T03:57:20.057Z,7.48
2023-04-21T03:59:23.814Z,7.49
2023-04-21T04:01:27.612Z,7.49
2023-04-21T04:03:31.624Z,7.48
2023-04-21T04:05:37.384Z,7.48
2023-04-21T04:07:41.229Z,7.47
2023-04-21T04:09:46.481Z,7.47
2023-04-21T04:11:50.279Z,7.46
2023-04-21T04:13:54.125Z,7.45
2023-04-21T04:15:58.152Z,7.47
2023-04-21T04:18:02.260Z,7.47
2023-04-21T04:20:08.498Z,7.49
2023-04-21T04:22:12.348Z,7.48
2023-04-21T04:24:16.186Z,7.45
2023-04-21T04:26:22.794Z,7.45
2023-04-21T04:28:26.536Z,7.45
2023-04-21T04:30:30.042Z,7.44
2023-04-21T04:32:34.869Z,7.45
2023-04-21T04:34:38.833Z,7.45
2023-04-21T04:36:43.489Z,7.45
2023-04-21T04:38:47.135Z,7.49
2023-04-21T04:40:55.811Z,7.48
2023-04-21T04:43:01.427Z,7.48
2023-04-21T04:45:05.600Z,7.48
2023-04-21T04:47:09.186Z,7.50
2023-04-21T04:49:12.845Z,7.51
2023-04-21T04:51:16.493Z,7.54
2023-04-21T04:53:20.089Z,7.55
2023-04-21T04:55:23.950Z,7.57
2023-04-21T04:57:27.669Z,7.56
2023-04-21T04:59:32.669Z,7.56
2023-04-21T05:01:38.254Z,7.56
2023-04-21T05:03:41.974Z,7.56
2023-04-21T05:05:46.346Z,7.56
2023-04-21T05:07:49.776Z,7.58
2023-04-21T05:09:53.285Z,7.57
2023-04-21T05:11:56.798Z,7.58
2023-04-21T05:14:00.281Z,7.59
2023-04-21T05:16:05.254Z,7.59
2023-04-21T05:18:09.053Z,7.60
2023-04-21T05:20:13.095Z,7.59
2023-04-21T05:22:16.543Z,7.61
2023-04-21T05:24:23.350Z,7.62
2023-04-21T05:26:28.839Z,7.61
2023-04-21T05:28:32.435Z,7.61
2023-04-21T05:30:35.873Z,7.57
2023-04-21T05:32:41.295Z,7.58
2023-04-21T05:34:44.960Z,7.56
2023-04-21T05:36:49.194Z,7.54
2023-04-21T05:38:52.934Z,7.54
2023-04-21T05:40:56.848Z,7.52
2023-04-21T05:43:00.424Z,7.52
2023-04-21T05:45:04.230Z,7.50
2023-04-21T05:47:08.114Z,7.50
2023-04-21T05:49:12.979Z,7.50
2023-04-21T05:51:17.078Z,7.50
2023-04-21T05:53:20.598Z,7.49
2023-04-21T05:55:24.135Z,7.47
2023-04-21T05:57:27.822Z,7.47
2023-04-21T05:59:31.703Z,7.48
2023-04-21T06:01:36.128Z,7.46
2023-04-21T06:03:40.100Z,7.45
2023-04-21T06:05:45.199Z,7.47
2023-04-21T06:07:48.385Z,7.47
2023-04-21T06:09:52.424Z,7.48
2023-04-21T06:11:57.086Z,7.49
2023-04-21T06:14:01.948Z,7.51
2023-04-21T06:16:05.690Z,7.55
2023-04-21T06:18:09.213Z,7.56
2023-04-21T06:20:13.700Z,7.61
2023-04-21T06:22:18.670Z,7.59
2023-04-21T06:24:25.667Z,7.61
2023-04-21T06:26:29.387Z,7.64
2023-04-21T06:28:33.221Z,7.67
2023-04-21T06:30:36.826Z,7.68
2023-04-21T06:32:40.485Z,7.72
2023-04-21T06:34:43.910Z,7.79
2023-04-21T06:36:47.470Z,7.84
2023-04-21T06:38:52.329Z,7.92
2023-04-21T06:40:55.717Z,7.97
2023-04-21T06:42:59.154Z,8.09
2023-04-21T06:45:02.871Z,8.17
2023-04-21T06:47:06.462Z,8.13
2023-04-21T06:49:10.308Z,8.25
2023-04-21T06:51:13.809Z,8.26
2023-04-21T06:53:18.196Z,8.25
2023-04-21T06:55:23.194Z,8.25
2023-04-21T06:57:26.626Z,8.34
2023-04-21T06:59:31.025Z,8.48
2023-04-21T07:01:35.311Z,8.50
2023-04-21T07:03:39.997Z,8.43
2023-04-21T07:05:44.635Z,8.39
2023-04-21T07:07:49.255Z,8.34
2023-04-21T07:09:53.112Z,8.37
2023-04-21T07:11:58.917Z,8.34
2023-04-21T07:14:02.762Z,8.32
2023-04-21T07:16:07.536Z,8.25
2023-04-21T07:18:11.649Z,8.23
2023-04-21T07:20:16.033Z,8.20
2023-04-21T07:22:20.054Z,8.24
2023-04-21T07:24:24.225Z,8.28
2023-04-21T07:26:28.271Z,8.28
2023-04-21T07:28:33.500Z,8.29
2023-04-21T07:30:37.404Z,8.32
2023-04-21T07:32:41.511Z,8.36
2023-04-21T07:34:47.431Z,8.37
2023-04-21T07:36:52.502Z,8.39
2023-04-21T07:38:55.803Z,8.35
2023-04-21T07:41:00.425Z,8.36
2023-04-21T07:43:04.213Z,8.32
2023-04-21T07:45:10.417Z,8.35
2023-04-21T07:47:14.425Z,8.34
2023-04-21T07:49:18.782Z,8.35
2023-04-21T07:51:22.396Z,8.40
2023-04-21T07:53:26.254Z,8.51
2023-04-21T07:55:29.914Z,8.49
2023-04-21T07:57:35.225Z,8.57
2023-04-21T07:59:38.962Z,8.94
2023-04-21T08:01:44.065Z,9.29
2023-04-21T08:03:47.891Z,9.52
2023-04-21T08:05:51.887Z,9.64
2023-04-21T08:07:55.891Z,9.80
2023-04-21T08:10:00.462Z,9.97
2023-04-21T08:12:04.443Z,9.88
2023-04-21T08:14:10.318Z,9.83
2023-04-21T08:16:13.966Z,9.70
2023-04-21T08:18:21.416Z,9.60
2023-04-21T08:20:26.156Z,9.50
2023-04-21T08:22:29.632Z,9.59
2023-04-21T08:24:33.440Z,9.79
2023-04-21T08:26:37.220Z,9.92
2023-04-21T08:28:40.916Z,10.01
2023-04-21T08:30:44.642Z,10.02
2023-04-21T08:32:49.536Z,10.05
2023-04-21T08:34:55.438Z,9.94
2023-04-21T08:36:59.460Z,9.94
2023-04-21T08:39:03.411Z,10.03
2023-04-21T08:41:08.855Z,9.93
2023-04-21T08:43:12.672Z,9.92
2023-04-21T08:45:17.055Z,9.85
2023-04-21T08:47:23.937Z,9.80
2023-04-21T08:49:30.586Z,9.76
2023-04-21T08:51:36.778Z,9.82
2023-04-21T08:53:42.711Z,9.70
2023-04-21T08:55:53.695Z,9.47
2023-04-21T08:58:06.984Z,9.37
2023-04-21T09:00:11.783Z,9.30
2023-04-21T09:02:16.970Z,9.32
2023-04-21T09:04:20.725Z,9.27
2023-04-21T09:06:24.686Z,9.28
2023-04-21T09:08:30.607Z,9.23
2023-04-21T09:10:34.259Z,9.21
2023-04-21T09:12:41.039Z,9.20
2023-04-21T09:14:44.996Z,9.09
2023-04-21T09:17:01.857Z,9.04
2023-04-21T09:19:15.090Z,8.97
2023-04-21T09:21:20.625Z,8.99
2023-04-21T09:23:24.398Z,8.98
2023-04-21T09:25:29.382Z,9.00
2023-04-21T09:27:32.989Z,8.98
2023-04-21T09:29:36.550Z,8.97
2023-04-21T09:31:40.541Z,8.96
2023-04-21T09:33:57.753Z,8.92
2023-04-21T09:36:04.489Z,8.95
2023-04-21T09:38:13.081Z,8.94
2023-04-21T09:40:19.484Z,8.98
2023-04-21T09:42:30.705Z,9.06
2023-04-21T09:44:39.768Z,9.10
2023-04-21T09:47:01.931Z,9.10
2023-04-21T09:49:05.819Z,9.22
2023-04-21T09:53:19.236Z,9.29
2023-04-21T09:55:27.281Z,9.30
2023-04-21T09:57:33.695Z,9.38
2023-04-21T09:59:38.610Z,9.44
2023-04-21T10:01:42.741Z,9.38
2023-04-21T10:03:49.336Z,9.37
2023-04-21T10:05:53.282Z,9.32
2023-04-21T10:07:58.075Z,9.41
2023-04-21T10:10:02.824Z,9.48
2023-04-21T10:12:09.467Z,9.50
2023-04-21T10:14:14.878Z,9.57
2023-04-21T10:16:20.146Z,9.53
2023-04-21T10:18:25.593Z,9.53
2023-04-21T10:20:30.586Z,9.55
2023-04-21T10:22:35.211Z,9.59
2023-04-21T10:24:40.430Z,9.56
2023-04-21T10:26:44.330Z,9.57
2023-04-21T10:28:55.916Z,9.57
2023-04-21T10:31:39.696Z,9.56
2023-04-21T10:33:43.450Z,9.55
2023-04-21T10:36:04.089Z,9.49
2023-04-21T10:38:08.749Z,9.60
2023-04-21T10:42:45.896Z,9.78
2023-04-21T10:44:54.501Z,9.86
2023-04-21T10:47:01.014Z,10.05
2023-04-21T10:49:09.203Z,10.28
2023-04-21T10:51:12.975Z,10.29
2023-04-21T10:53:18.310Z,10.47
2023-04-21T10:55:22.637Z,10.59
2023-04-21T10:57:26.467Z,10.85
2023-04-21T10:59:30.117Z,11.04
2023-04-21T11:01:33.774Z,10.91
2023-04-21T11:03:39.413Z,10.76
2023-04-21T11:05:43.414Z,10.61
2023-04-21T11:07:47.383Z,10.60
2023-04-21T11:09:59.518Z,10.58
2023-04-21T11:12:04.786Z,10.64
2023-04-21T11:14:08.334Z,10.76
2023-04-21T11:16:11.950Z,11.00
2023-04-21T11:18:16.261Z,11.22
2023-04-21T11:20:21.552Z,11.39
2023-04-21T11:22:26.717Z,11.53
2023-04-21T11:24:30.085Z,11.62
2023-04-21T11:26:35.084Z,11.71
2023-04-21T11:28:38.288Z,11.63
2023-04-21T11:30:41.920Z,11.74
2023-04-21T11:32:45.823Z,11.89
2023-04-21T11:34:49.852Z,11.96
2023-04-21T11:36:56.041Z,12.24
2023-04-21T11:39:00.411Z,12.44
2023-04-21T11:41:04.056Z,12.60
2023-04-21T11:43:07.704Z,12.61
2023-04-21T11:45:21.288Z,12.56
2023-04-21T11:47:27.331Z,12.41
2023-04-21T11:49:32.084Z,12.33
2023-04-21T11:51:36.835Z,12.28
2023-04-21T11:53:42.046Z,12.38
2023-04-21T11:55:45.919Z,12.52
2023-04-21T11:57:52.595Z,12.57
2023-04-21T11:59:56.412Z,12.52
2023-04-21T12:01:59.970Z,12.64
2023-04-21T12:04:05.724Z,12.63
2023-04-21T12:06:09.868Z,12.63
2023-04-21T12:08:16.716Z,12.81
2023-04-21T12:10:22.826Z,12.82
2023-04-21T12:12:26.461Z,12.64
2023-04-21T12:14:30.001Z,12.51
2023-04-21T12:16:33.583Z,12.45
2023-04-21T12:18:38.001Z,12.34
2023-04-21T12:20:50.991Z,12.31
2023-04-21T12:22:54.757Z,12.29
2023-04-21T12:24:58.452Z,12.27
2023-04-21T12:27:03.771Z,12.34
2023-04-21T12:29:07.668Z,12.47
2023-04-21T12:31:11.317Z,12.52
2023-04-21T12:33:14.933Z,12.40
2023-04-21T12:35:19.311Z,12.39
2023-04-21T12:37:23.441Z,12.42
2023-04-21T12:39:27.088Z,12.51
2023-04-21T12:41:31.070Z,12.42
2023-04-21T12:43:36.699Z,12.33
2023-04-21T12:45:40.668Z,12.42
2023-04-21T12:47:46.911Z,12.55
2023-04-21T12:49:51.077Z,12.48
2023-04-21T12:51:55.377Z,12.43
2023-04-21T12:53:59.304Z,12.36
2023-04-21T12:56:05.180Z,12.34
2023-04-21T12:58:10.225Z,12.30
2023-04-21T13:00:16.987Z,12.33
2023-04-21T13:02:20.958Z,12.43
2023-04-21T13:04:25.230Z,12.58
2023-04-21T13:06:29.789Z,12.59
2023-04-21T13:08:33.636Z,12.60
2023-04-21T13:10:37.449Z,12.65
2023-04-21T13:12:41.837Z,12.68
2023-04-21T13:14:45.993Z,12.75
2023-04-21T13:16:51.693Z,12.71
2023-04-21T13:18:55.888Z,12.73
2023-04-21T13:20:59.816Z,12.74
2023-04-21T13:23:03.490Z,12.69
2023-04-21T13:25:07.969Z,12.61
2023-04-21T13:27:11.701Z,12.66
2023-04-21T13:29:15.422Z,12.76
2023-04-21T13:31:19.238Z,12.68
2023-04-21T13:33:24.355Z,12.63
2023-04-21T13:35:28.130Z,12.53
2023-04-21T13:37:31.915Z,12.40
2023-04-21T13:39:35.566Z,12.29
2023-04-21T13:41:39.295Z,12.19
2023-04-21T13:43:42.906Z,12.19
2023-04-21T13:45:48.274Z,12.21
2023-04-21T13:47:53.111Z,12.23
2023-04-21T13:49:58.045Z,12.25
2023-04-21T13:52:01.703Z,12.36
2023-04-21T13:54:05.439Z,12.29
2023-04-21T13:56:10.602Z,12.20
2023-04-21T13:58:16.975Z,12.14
2023-04-21T14:00:22.652Z,12.07
2023-04-21T14:02:26.450Z,12.05
2023-04-21T14:04:30.574Z,12.00
2023-04-21T14:06:35.851Z,12.02
2023-04-21T14:08:43.134Z,12.01
2023-04-21T14:10:48.197Z,12.01
2023-04-21T14:12:53.381Z,12.13
2023-04-21T14:14:59.461Z,12.23
2023-04-21T14:17:04.471Z,12.30
2023-04-21T14:19:09.418Z,12.31
2023-04-21T14:21:13.123Z,12.30
2023-04-21T14:23:18.415Z,12.38
2023-04-21T14:25:22.101Z,12.42
2023-04-21T14:27:26.009Z,12.36
2023-04-21T14:29:29.694Z,12.30
2023-04-21T14:31:33.341Z,12.28
2023-04-21T14:33:37.103Z,12.15
2023-04-21T14:35:41.526Z,12.03
2023-04-21T14:37:45.368Z,11.94
2023-04-21T14:39:51.155Z,11.92
2023-04-21T14:41:55.158Z,11.84
2023-04-21T14:44:00.603Z,11.84
2023-04-21T14:46:04.865Z,11.83
2023-04-21T14:48:08.775Z,11.80
2023-04-21T14:50:12.947Z,11.79
2023-04-21T14:52:16.781Z,11.80
2023-04-21T14:54:20.901Z,11.78
2023-04-21T14:56:26.127Z,11.75
2023-04-21T14:58:30.234Z,11.80
2023-04-21T15:00:36.693Z,11.80
2023-04-21T15:02:40.894Z,11.80
2023-04-21T15:04:45.149Z,11.77
2023-04-21T15:06:48.922Z,11.73
2023-04-21T15:08:52.712Z,11.66
2023-04-21T15:10:56.888Z,11.59
2023-04-21T15:13:01.957Z,11.52
2023-04-21T15:15:06.297Z,11.47
2023-04-21T15:17:10.104Z,11.44
2023-04-21T15:19:14.486Z,11.43
2023-04-21T15:21:18.360Z,11.45
2023-04-21T15:23:21.856Z,11.43
2023-04-21T15:25:25.792Z,11.49
2023-04-21T15:27:29.585Z,11.59
2023-04-21T15:29:34.668Z,11.65
2023-04-21T15:31:38.702Z,11.75
2023-04-21T15:33:42.898Z,11.88
2023-04-21T15:35:48.577Z,11.97
2023-04-21T15:37:53.067Z,11.98
2023-04-21T15:39:58.110Z,11.84
2023-04-21T15:42:01.747Z,11.78
2023-04-21T15:44:05.592Z,11.69
2023-04-21T15:46:13.484Z,11.62
2023-04-21T15:48:17.829Z,11.46
2023-04-21T15:50:21.953Z,11.39
2023-04-21T15:52:26.134Z,11.39
2023-04-21T15:54:29.559Z,11.38
2023-04-21T15:56:33.590Z,11.41
2023-04-21T15:58:37.176Z,11.35
2023-04-21T16:00:41.882Z,11.24
2023-04-21T16:02:47.340Z,11.12
2023-04-21T16:04:51.204Z,11.13
2023-04-21T16:06:55.181Z,11.16
2023-04-21T16:08:59.226Z,11.27
2023-04-21T16:11:03.092Z,11.34
2023-04-21T16:13:07.064Z,11.33
2023-04-21T16:17:20.582Z,11.43
2023-04-21T16:19:25.914Z,11.47
2023-04-21T16:21:30.016Z,11.49
2023-04-21T16:23:34.349Z,11.46
2023-04-21T16:25:40.119Z,11.42
2023-04-21T16:27:44.130Z,11.42
2023-04-21T16:29:48.055Z,11.40
2023-04-21T16:31:52.103Z,11.38
2023-04-21T16:34:00.284Z,11.33
2023-04-21T16:36:05.926Z,11.33
2023-04-21T16:38:09.907Z,11.27
2023-04-21T16:40:14.403Z,11.25
2023-04-21T16:42:18.099Z,11.30
2023-04-21T16:44:22.106Z,11.32
2023-04-21T16:46:26.196Z,11.25
2023-04-21T16:48:29.962Z,11.21
2023-04-21T16:50:36.185Z,11.18
2023-04-21T16:52:44.193Z,11.20
2023-04-21T16:54:51.584Z,11.17
2023-04-21T16:56:58.254Z,11.13
2023-04-21T16:59:02.549Z,11.12
2023-04-21T17:01:08.027Z,11.14
2023-04-21T17:03:11.902Z,11.20
2023-04-21T17:05:16.618Z,11.20
2023-04-21T17:07:20.263Z,11.14
2023-04-21T17:09:25.506Z,11.07
2023-04-21T17:11:30.098Z,11.02
2023-04-21T17:13:38.278Z,10.98
2023-04-21T17:15:42.428Z,11.04
2023-04-21T17:17:47.303Z,11.12
2023-04-21T17:19:51.113Z,11.16
2023-04-21T17:21:54.916Z,11.10
2023-04-21T17:23:58.960Z,11.08
2023-04-21T17:26:05.329Z,11.03
2023-04-21T17:28:09.036Z,11.03
2023-04-21T17:30:13.475Z,11.05
2023-04-21T17:32:17.350Z,11.06
2023-04-21T17:34:21.024Z,11.07
2023-04-21T17:36:24.855Z,11.07
2023-04-21T17:38:28.511Z,11.13
2023-04-21T17:40:32.315Z,11.07
2023-04-21T17:42:37.651Z,11.04
2023-04-21T17:44:41.424Z,10.99
2023-04-21T17:46:45.166Z,10.97
2023-04-21T17:49:07.629Z,10.95
2023-04-21T17:51:11.962Z,10.92
2023-04-21T17:53:15.970Z,10.92
2023-04-21T17:55:19.920Z,10.91
2023-04-21T17:57:23.696Z,10.90
2023-04-21T17:59:29.344Z,10.92
2023-04-21T18:01:33.224Z,10.92
2023-04-21T18:03:37.856Z,10.95
2023-04-21T18:05:42.320Z,10.97
2023-04-21T18:07:46.657Z,11.01
2023-04-21T18:09:51.979Z,11.01
2023-04-21T18:11:57.245Z,11.01
2023-04-21T18:14:02.021Z,10.97
2023-04-21T18:16:08.045Z,10.98
2023-04-21T18:18:12.887Z,10.99
2023-04-21T18:20:17.727Z,10.96
2023-04-21T18:22:22.636Z,10.90
2023-04-21T18:24:26.215Z,10.90
2023-04-21T18:26:29.978Z,10.86
2023-04-21T18:28:33.607Z,10.84
2023-04-21T18:30:37.432Z,10.81
2023-04-21T18:32:43.269Z,10.78
2023-04-21T18:34:47.751Z,10.71
2023-04-21T18:36:52.104Z,10.64
2023-04-21T18:38:59.705Z,10.62
2023-04-21T18:41:04.132Z,10.57
2023-04-21T18:43:09.872Z,10.49
2023-04-21T18:45:14.027Z,10.43
2023-04-21T18:47:18.216Z,10.38
2023-04-21T18:49:23.589Z,10.32
2023-04-21T18:51:31.988Z,10.31
2023-04-21T18:53:35.944Z,10.27
2023-04-21T18:55:40.280Z,10.21
2023-04-21T18:57:44.903Z,10.19
2023-04-21T18:59:49.636Z,10.13
2023-04-21T19:01:54.357Z,10.09
2023-04-21T19:04:00.273Z,10.06
2023-04-21T19:06:06.278Z,10.06
2023-04-21T19:08:11.195Z,10.02
2023-04-21T19:10:15.381Z,9.99
2023-04-21T19:12:19.597Z,9.94
2023-04-21T19:14:39.515Z,9.91
2023-04-21T19:16:56.371Z,9.87
2023-04-21T19:19:02.543Z,9.83
2023-04-21T19:21:14.291Z,9.84
2023-04-21T19:23:21.379Z,9.82
2023-04-21T19:25:27.424Z,9.80
2023-04-21T19:27:32.386Z,9.78
2023-04-21T19:29:40.670Z,9.74
2023-04-21T19:31:45.209Z,9.73
2023-04-21T19:33:50.953Z,9.71
2023-04-21T19:35:55.503Z,9.66
2023-04-21T19:38:01.575Z,9.62
2023-04-21T19:40:08.882Z,9.60
2023-04-21T19:42:13.345Z,9.54
2023-04-21T19:44:17.857Z,9.49
2023-04-21T19:46:23.057Z,9.45
2023-04-21T19:48:27.793Z,9.40
2023-04-21T19:50:35.605Z,9.38
2023-04-21T19:52:40.044Z,9.37
2023-04-21T19:54:47.161Z,9.36
2023-04-21T19:56:52.125Z,9.34
2023-04-21T19:58:57.655Z,9.32
2023-04-21T20:01:08.095Z,9.30
2023-04-21T20:03:13.856Z,9.29
2023-04-21T20:05:19.015Z,9.32
2023-04-21T20:07:23.694Z,9.30
2023-04-21T20:09:28.519Z,9.31
2023-04-21T20:11:35.445Z,9.30
2023-04-21T20:13:40.469Z,9.31
2023-04-21T20:15:45.318Z,9.31
2023-04-21T20:17:56.069Z,9.34
2023-04-21T20:20:01.919Z,9.31
2023-04-21T20:22:07.189Z,9.28
2023-04-21T20:24:12.704Z,9.29
2023-04-21T20:26:23.328Z,9.28
2023-04-21T20:28:33.104Z,9.28
2023-04-21T20:30:38.206Z,9.29
2023-04-21T20:32:43.187Z,9.30
2023-04-21T20:34:49.104Z,9.34
2023-04-21T20:36:56.087Z,9.32
2023-04-21T20:39:01.496Z,9.31
2023-04-21T20:41:06.760Z,9.32
2023-04-21T20:43:12.705Z,9.32
2023-04-21T20:45:19.098Z,9.30
2023-04-21T20:47:25.743Z,9.29
2023-04-21T20:49:30.122Z,9.27
2023-04-21T20:51:34.818Z,9.25
2023-04-21T20:53:39.298Z,9.25
2023-04-21T20:55:44.542Z,9.23
2023-04-21T20:57:49.843Z,9.20
2023-04-21T20:59:54.371Z,9.19
2023-04-21T21:02:00.703Z,9.14
2023-04-21T21:04:05.444Z,9.16
2023-04-21T21:06:10.136Z,9.12
2023-04-21T21:08:15.452Z,9.12
2023-04-21T21:10:20.470Z,9.09
2023-04-21T21:12:27.642Z,9.07
2023-04-21T21:14:32.971Z,9.07
2023-04-21T21:16:38.387Z,9.05
2023-04-21T21:18:44.774Z,9.05
2023-04-21T21:20:49.588Z,9.03
2023-04-21T21:22:53.717Z,9.06
2023-04-21T21:24:58.243Z,9.04
2023-04-21T21:27:02.769Z,9.03
2023-04-21T21:29:07.486Z,9.05
2023-04-21T21:31:12.834Z,9.06
2023-04-21T21:33:17.770Z,9.07
2023-04-21T21:35:24.145Z,9.06
2023-04-21T21:37:28.816Z,9.06
2023-04-21T21:39:33.854Z,9.04
2023-04-21T21:41:37.695Z,8.98
2023-04-21T21:43:41.592Z,8.95
2023-04-21T21:45:46.383Z,8.96
2023-04-21T21:47:51.706Z,8.91
2023-04-21T21:49:58.905Z,8.86
2023-04-21T21:52:05.151Z,8.84
2023-04-21T21:54:09.325Z,8.83
2023-04-21T21:56:12.926Z,8.81
2023-04-21T21:58:17.131Z,8.81
2023-04-21T22:00:21.458Z,8.80
2023-04-21T22:02:25.495Z,8.81
2023-04-21T22:04:29.837Z,8.81
2023-04-21T22:06:35.003Z,8.81
2023-04-21T22:08:40.323Z,8.82
2023-04-21T22:10:44.439Z,8.84
2023-04-21T22:12:48.336Z,8.83
2023-04-21T22:14:53.064Z,8.84
2023-04-21T22:16:57.637Z,8.85
2023-04-21T22:19:01.681Z,8.87
2023-04-21T22:21:05.811Z,8.90
2023-04-21T22:23:09.322Z,8.92
2023-04-21T22:25:16.223Z,8.92
2023-04-21T22:27:20.089Z,8.96
2023-04-21T22:29:23.993Z,8.98
2023-04-21T22:31:27.720Z,8.99
2023-04-21T22:33:31.375Z,9.03
2023-04-21T22:35:34.987Z,9.02
2023-04-21T22:37:38.698Z,9.01
2023-04-21T22:39:42.565Z,8.99
2023-04-21T22:41:47.864Z,9.00
2023-04-21T22:43:51.592Z,9.01
2023-04-21T22:45:55.703Z,9.01
2023-04-21T22:47:59.612Z,9.02
2023-04-21T22:50:04.588Z,9.01
2023-04-21T22:52:08.432Z,9.03
2023-04-21T22:54:12.502Z,9.02
2023-04-21T22:56:16.421Z,9.02
2023-04-21T22:58:21.458Z,9.00
2023-04-21T23:00:24.713Z,9.02
2023-04-21T23:02:28.468Z,9.01
2023-04-21T23:04:32.164Z,9.01
2023-04-21T23:06:35.909Z,9.02
2023-04-21T23:08:39.779Z,9.00
2023-04-21T23:10:43.623Z,8.99
2023-04-21T23:12:47.620Z,9.00
2023-04-21T23:14:53.207Z,8.97
2023-04-21T23:16:57.040Z,8.96
2023-04-21T23:19:00.927Z,8.94
2023-04-21T23:21:04.470Z,8.95
2023-04-21T23:23:08.258Z,8.93
2023-04-21T23:25:12.296Z,8.92
2023-04-21T23:27:15.821Z,8.90
2023-04-21T23:29:19.551Z,8.91
2023-04-21T23:31:26.246Z,8.89
2023-04-21T23:33:29.932Z,8.86
2023-04-21T23:35:33.737Z,8.86
2023-04-21T23:37:37.407Z,8.88
2023-04-21T23:39:41.036Z,8.84
2023-04-21T23:41:44.880Z,8.85
2023-04-21T23:43:48.493Z,8.80
2023-04-21T23:45:52.247Z,8.77
2023-04-21T23:47:57.613Z,8.77
2023-04-21T23:50:01.783Z,8.73
2023-04-21T23:52:05.784Z,8.73
2023-04-21T23:54:09.756Z,8.72
2023-04-21T23:56:13.604Z,8.67
2023-04-21T23:58:17.357Z,8.63
